sensor_id;sensor_type;location;lat;lon;timestamp;P1;durP1;ratioP1;P2;durP2;ratioP2
4889;SDS011;2459;42.268;23.112;2022-11-15T00:01:57;58.57;;;22.43;;
4889;SDS011;2459;42.268;23.112;2022-11-15T00:04:25;48.13;;;20.10;;
4889;SDS011;2459;42.268;23.112;2022-11-15T00:06:51;38.93;;;17.60;;
4889;SDS011;2459;42.268;23.112;2022-11-15T00:09:17;45.13;;;19.40;;
4889;SDS011;2459;42.268;23.112;2022-11-15T00:11:44;47.60;;;18.90;;
4889;SDS011;2459;42.268;23.112;2022-11-15T00:14:10;59.60;;;21.50;;
4889;SDS011;2459;42.268;23.112;2022-11-15T00:16:37;50.80;;;19.53;;
4889;SDS011;2459;42.268;23.112;2022-11-15T00:19:03;48.57;;;20.27;;
4889;SDS011;2459;42.268;23.112;2022-11-15T00:21:31;45.37;;;20.27;;
4889;SDS011;2459;42.268;23.112;2022-11-15T00:23:58;58.30;;;22.63;;
4889;SDS011;2459;42.268;23.112;2022-11-15T00:26:24;67.13;;;20.50;;
4889;SDS011;2459;42.268;23.112;2022-11-15T00:28:51;60.97;;;21.87;;
4889;SDS011;2459;42.268;23.112;2022-11-15T00:31:18;47.50;;;20.00;;
4889;SDS011;2459;42.268;23.112;2022-11-15T00:33:44;48.37;;;18.87;;
4889;SDS011;2459;42.268;23.112;2022-11-15T00:36:11;58.77;;;19.57;;
4889;SDS011;2459;42.268;23.112;2022-11-15T00:38:39;47.93;;;20.30;;
4889;SDS011;2459;42.268;23.112;2022-11-15T00:41:06;51.53;;;20.53;;
4889;SDS011;2459;42.268;23.112;2022-11-15T00:43:33;42.90;;;19.43;;
4889;SDS011;2459;42.268;23.112;2022-11-15T00:46:00;51.60;;;20.40;;
4889;SDS011;2459;42.268;23.112;2022-11-15T00:48:27;34.87;;;16.87;;
4889;SDS011;2459;42.268;23.112;2022-11-15T00:50:54;39.23;;;18.10;;
4889;SDS011;2459;42.268;23.112;2022-11-15T00:53:20;39.97;;;17.40;;
4889;SDS011;2459;42.268;23.112;2022-11-15T00:55:48;43.43;;;17.93;;
4889;SDS011;2459;42.268;23.112;2022-11-15T00:58:14;40.63;;;20.10;;
4889;SDS011;2459;42.268;23.112;2022-11-15T01:00:41;50.13;;;19.80;;
4889;SDS011;2459;42.268;23.112;2022-11-15T01:03:07;51.87;;;22.40;;
4889;SDS011;2459;42.268;23.112;2022-11-15T01:05:36;88.97;;;31.03;;
4889;SDS011;2459;42.268;23.112;2022-11-15T01:08:02;130.17;;;35.27;;
4889;SDS011;2459;42.268;23.112;2022-11-15T01:10:29;75.90;;;27.67;;
4889;SDS011;2459;42.268;23.112;2022-11-15T01:12:57;83.47;;;26.63;;
4889;SDS011;2459;42.268;23.112;2022-11-15T01:15:23;62.17;;;22.13;;
4889;SDS011;2459;42.268;23.112;2022-11-15T01:17:50;91.17;;;26.17;;
4889;SDS011;2459;42.268;23.112;2022-11-15T01:20:16;54.70;;;18.50;;
4889;SDS011;2459;42.268;23.112;2022-11-15T01:22:43;37.50;;;17.70;;
4889;SDS011;2459;42.268;23.112;2022-11-15T01:25:10;49.67;;;17.77;;
4889;SDS011;2459;42.268;23.112;2022-11-15T01:27:36;50.90;;;18.50;;
4889;SDS011;2459;42.268;23.112;2022-11-15T01:30:05;45.03;;;19.97;;
4889;SDS011;2459;42.268;23.112;2022-11-15T01:32:32;55.13;;;21.03;;
4889;SDS011;2459;42.268;23.112;2022-11-15T01:34:58;47.90;;;18.83;;
4889;SDS011;2459;42.268;23.112;2022-11-15T01:37:24;49.27;;;18.73;;
4889;SDS011;2459;42.268;23.112;2022-11-15T01:39:51;44.23;;;18.37;;
4889;SDS011;2459;42.268;23.112;2022-11-15T01:42:17;54.10;;;20.80;;
4889;SDS011;2459;42.268;23.112;2022-11-15T01:44:45;54.33;;;19.93;;
4889;SDS011;2459;42.268;23.112;2022-11-15T01:47:15;42.17;;;18.40;;
4889;SDS011;2459;42.268;23.112;2022-11-15T01:49:45;40.13;;;16.37;;
4889;SDS011;2459;42.268;23.112;2022-11-15T01:52:15;56.83;;;20.73;;
4889;SDS011;2459;42.268;23.112;2022-11-15T01:54:43;55.27;;;20.53;;
4889;SDS011;2459;42.268;23.112;2022-11-15T01:57:10;55.30;;;21.00;;
4889;SDS011;2459;42.268;23.112;2022-11-15T01:59:37;37.70;;;15.93;;
4889;SDS011;2459;42.268;23.112;2022-11-15T02:02:06;44.37;;;18.27;;
4889;SDS011;2459;42.268;23.112;2022-11-15T02:04:35;44.43;;;18.10;;
4889;SDS011;2459;42.268;23.112;2022-11-15T02:07:02;96.33;;;31.27;;
4889;SDS011;2459;42.268;23.112;2022-11-15T02:09:30;101.33;;;31.30;;
4889;SDS011;2459;42.268;23.112;2022-11-15T02:11:56;52.30;;;17.50;;
4889;SDS011;2459;42.268;23.112;2022-11-15T02:14:23;49.73;;;19.20;;
4889;SDS011;2459;42.268;23.112;2022-11-15T02:16:52;47.03;;;17.73;;
4889;SDS011;2459;42.268;23.112;2022-11-15T02:19:28;76.67;;;25.57;;
4889;SDS011;2459;42.268;23.112;2022-11-15T02:22:00;54.73;;;18.80;;
4889;SDS011;2459;42.268;23.112;2022-11-15T02:24:47;45.60;;;18.83;;
4889;SDS011;2459;42.268;23.112;2022-11-15T02:27:24;40.40;;;17.20;;
4889;SDS011;2459;42.268;23.112;2022-11-15T02:30:02;52.23;;;22.40;;
4889;SDS011;2459;42.268;23.112;2022-11-15T02:32:31;59.07;;;18.60;;
4889;SDS011;2459;42.268;23.112;2022-11-15T02:35:01;58.07;;;21.63;;
4889;SDS011;2459;42.268;23.112;2022-11-15T02:37:31;59.63;;;21.53;;
4889;SDS011;2459;42.268;23.112;2022-11-15T02:39:59;41.77;;;17.90;;
4889;SDS011;2459;42.268;23.112;2022-11-15T02:42:28;41.07;;;16.93;;
4889;SDS011;2459;42.268;23.112;2022-11-15T02:45:16;35.67;;;15.77;;
4889;SDS011;2459;42.268;23.112;2022-11-15T02:47:45;48.37;;;21.10;;
4889;SDS011;2459;42.268;23.112;2022-11-15T02:50:16;38.30;;;18.30;;
4889;SDS011;2459;42.268;23.112;2022-11-15T02:52:44;37.47;;;16.90;;
4889;SDS011;2459;42.268;23.112;2022-11-15T02:55:24;45.53;;;19.63;;
4889;SDS011;2459;42.268;23.112;2022-11-15T02:57:52;63.70;;;22.50;;
4889;SDS011;2459;42.268;23.112;2022-11-15T03:00:21;70.57;;;23.50;;
4889;SDS011;2459;42.268;23.112;2022-11-15T03:05:33;102.53;;;33.60;;
4889;SDS011;2459;42.268;23.112;2022-11-15T03:08:02;47.43;;;22.30;;
4889;SDS011;2459;42.268;23.112;2022-11-15T03:10:32;45.37;;;19.17;;
4889;SDS011;2459;42.268;23.112;2022-11-15T03:13:03;44.80;;;17.73;;
4889;SDS011;2459;42.268;23.112;2022-11-15T03:15:36;39.40;;;17.50;;
4889;SDS011;2459;42.268;23.112;2022-11-15T03:18:04;50.73;;;20.43;;
4889;SDS011;2459;42.268;23.112;2022-11-15T03:20:34;45.90;;;18.73;;
4889;SDS011;2459;42.268;23.112;2022-11-15T03:23:01;51.73;;;18.20;;
4889;SDS011;2459;42.268;23.112;2022-11-15T03:25:29;48.17;;;17.80;;
4889;SDS011;2459;42.268;23.112;2022-11-15T03:27:57;57.23;;;20.73;;
4889;SDS011;2459;42.268;23.112;2022-11-15T03:30:25;43.03;;;17.73;;
4889;SDS011;2459;42.268;23.112;2022-11-15T03:32:52;47.77;;;18.93;;
4889;SDS011;2459;42.268;23.112;2022-11-15T03:35:21;46.10;;;17.33;;
4889;SDS011;2459;42.268;23.112;2022-11-15T03:37:50;44.27;;;17.23;;
4889;SDS011;2459;42.268;23.112;2022-11-15T03:40:17;50.43;;;19.07;;
4889;SDS011;2459;42.268;23.112;2022-11-15T03:42:48;42.57;;;19.33;;
4889;SDS011;2459;42.268;23.112;2022-11-15T03:45:18;40.50;;;15.20;;
4889;SDS011;2459;42.268;23.112;2022-11-15T03:47:46;33.63;;;15.10;;
4889;SDS011;2459;42.268;23.112;2022-11-15T03:50:16;65.00;;;18.80;;
4889;SDS011;2459;42.268;23.112;2022-11-15T03:52:44;47.33;;;17.60;;
4889;SDS011;2459;42.268;23.112;2022-11-15T03:55:13;48.93;;;17.20;;
4889;SDS011;2459;42.268;23.112;2022-11-15T03:57:41;35.60;;;15.80;;
4889;SDS011;2459;42.268;23.112;2022-11-15T04:00:08;33.50;;;14.60;;
4889;SDS011;2459;42.268;23.112;2022-11-15T04:02:34;46.83;;;15.20;;
4889;SDS011;2459;42.268;23.112;2022-11-15T04:05:01;54.70;;;17.33;;
4889;SDS011;2459;42.268;23.112;2022-11-15T04:07:27;53.83;;;18.90;;
4889;SDS011;2459;42.268;23.112;2022-11-15T04:09:54;48.37;;;18.50;;
4889;SDS011;2459;42.268;23.112;2022-11-15T04:12:32;42.07;;;17.17;;
4889;SDS011;2459;42.268;23.112;2022-11-15T04:14:59;46.80;;;21.10;;
4889;SDS011;2459;42.268;23.112;2022-11-15T04:17:35;49.47;;;20.03;;
4889;SDS011;2459;42.268;23.112;2022-11-15T04:20:02;43.27;;;19.20;;
4889;SDS011;2459;42.268;23.112;2022-11-15T04:22:46;57.53;;;21.03;;
4889;SDS011;2459;42.268;23.112;2022-11-15T04:25:30;47.43;;;19.20;;
4889;SDS011;2459;42.268;23.112;2022-11-15T04:27:58;37.53;;;15.70;;
4889;SDS011;2459;42.268;23.112;2022-11-15T04:30:24;38.50;;;16.40;;
4889;SDS011;2459;42.268;23.112;2022-11-15T04:32:51;46.40;;;20.47;;
4889;SDS011;2459;42.268;23.112;2022-11-15T04:35:17;45.80;;;18.77;;
4889;SDS011;2459;42.268;23.112;2022-11-15T04:37:44;39.33;;;18.13;;
4889;SDS011;2459;42.268;23.112;2022-11-15T04:40:09;36.53;;;16.33;;
4889;SDS011;2459;42.268;23.112;2022-11-15T04:42:36;40.90;;;16.60;;
4889;SDS011;2459;42.268;23.112;2022-11-15T04:45:04;30.90;;;13.53;;
4889;SDS011;2459;42.268;23.112;2022-11-15T04:47:31;37.40;;;16.37;;
4889;SDS011;2459;42.268;23.112;2022-11-15T04:49:57;51.50;;;17.47;;
4889;SDS011;2459;42.268;23.112;2022-11-15T04:52:23;37.87;;;17.97;;
4889;SDS011;2459;42.268;23.112;2022-11-15T04:54:50;44.73;;;15.13;;
4889;SDS011;2459;42.268;23.112;2022-11-15T04:57:17;40.10;;;17.67;;
4889;SDS011;2459;42.268;23.112;2022-11-15T04:59:43;52.63;;;19.87;;
4889;SDS011;2459;42.268;23.112;2022-11-15T05:02:11;45.93;;;16.40;;
4889;SDS011;2459;42.268;23.112;2022-11-15T05:04:37;42.17;;;17.93;;
4889;SDS011;2459;42.268;23.112;2022-11-15T05:07:03;58.53;;;20.10;;
4889;SDS011;2459;42.268;23.112;2022-11-15T05:09:30;42.20;;;18.07;;
4889;SDS011;2459;42.268;23.112;2022-11-15T05:11:56;56.80;;;19.97;;
4889;SDS011;2459;42.268;23.112;2022-11-15T05:14:23;42.93;;;19.83;;
4889;SDS011;2459;42.268;23.112;2022-11-15T05:16:49;52.13;;;20.90;;
4889;SDS011;2459;42.268;23.112;2022-11-15T05:19:17;48.93;;;19.93;;
4889;SDS011;2459;42.268;23.112;2022-11-15T05:21:43;53.43;;;19.00;;
4889;SDS011;2459;42.268;23.112;2022-11-15T05:24:10;60.07;;;19.23;;
4889;SDS011;2459;42.268;23.112;2022-11-15T05:26:37;44.83;;;18.60;;
4889;SDS011;2459;42.268;23.112;2022-11-15T05:29:03;74.83;;;20.47;;
4889;SDS011;2459;42.268;23.112;2022-11-15T05:31:30;44.73;;;17.53;;
4889;SDS011;2459;42.268;23.112;2022-11-15T05:33:56;56.60;;;19.80;;
4889;SDS011;2459;42.268;23.112;2022-11-15T05:36:27;56.90;;;17.87;;
4889;SDS011;2459;42.268;23.112;2022-11-15T05:38:55;60.67;;;22.57;;
4889;SDS011;2459;42.268;23.112;2022-11-15T05:41:22;45.00;;;19.57;;
4889;SDS011;2459;42.268;23.112;2022-11-15T05:43:51;76.13;;;20.57;;
4889;SDS011;2459;42.268;23.112;2022-11-15T05:46:18;61.70;;;21.70;;
4889;SDS011;2459;42.268;23.112;2022-11-15T05:48:46;74.93;;;22.57;;
4889;SDS011;2459;42.268;23.112;2022-11-15T05:51:14;69.57;;;20.90;;
4889;SDS011;2459;42.268;23.112;2022-11-15T05:53:43;42.93;;;19.70;;
4889;SDS011;2459;42.268;23.112;2022-11-15T05:56:10;24.03;;;13.73;;
4889;SDS011;2459;42.268;23.112;2022-11-15T05:58:36;45.07;;;17.93;;
4889;SDS011;2459;42.268;23.112;2022-11-15T06:01:03;47.80;;;18.23;;
4889;SDS011;2459;42.268;23.112;2022-11-15T06:03:30;49.23;;;19.10;;
4889;SDS011;2459;42.268;23.112;2022-11-15T06:05:56;40.67;;;16.00;;
4889;SDS011;2459;42.268;23.112;2022-11-15T06:08:23;39.33;;;16.30;;
4889;SDS011;2459;42.268;23.112;2022-11-15T06:10:51;56.07;;;19.77;;
4889;SDS011;2459;42.268;23.112;2022-11-15T06:13:17;38.87;;;19.03;;
4889;SDS011;2459;42.268;23.112;2022-11-15T06:15:44;38.60;;;16.50;;
4889;SDS011;2459;42.268;23.112;2022-11-15T06:18:10;47.33;;;19.50;;
4889;SDS011;2459;42.268;23.112;2022-11-15T06:20:36;51.53;;;18.63;;
4889;SDS011;2459;42.268;23.112;2022-11-15T06:23:03;52.63;;;21.60;;
4889;SDS011;2459;42.268;23.112;2022-11-15T06:25:30;54.47;;;23.10;;
4889;SDS011;2459;42.268;23.112;2022-11-15T06:27:58;65.07;;;22.60;;
4889;SDS011;2459;42.268;23.112;2022-11-15T06:30:25;51.33;;;20.37;;
4889;SDS011;2459;42.268;23.112;2022-11-15T06:32:58;67.53;;;23.73;;
4889;SDS011;2459;42.268;23.112;2022-11-15T06:35:24;57.33;;;26.10;;
4889;SDS011;2459;42.268;23.112;2022-11-15T06:37:51;65.70;;;26.00;;
4889;SDS011;2459;42.268;23.112;2022-11-15T06:40:17;71.97;;;27.30;;
4889;SDS011;2459;42.268;23.112;2022-11-15T06:42:44;110.50;;;32.67;;
4889;SDS011;2459;42.268;23.112;2022-11-15T06:45:11;60.10;;;28.10;;
4889;SDS011;2459;42.268;23.112;2022-11-15T06:47:43;69.87;;;27.50;;
4889;SDS011;2459;42.268;23.112;2022-11-15T06:50:10;58.57;;;27.90;;
4889;SDS011;2459;42.268;23.112;2022-11-15T06:52:36;65.87;;;27.37;;
4889;SDS011;2459;42.268;23.112;2022-11-15T06:55:03;104.83;;;37.00;;
4889;SDS011;2459;42.268;23.112;2022-11-15T06:57:29;74.63;;;27.57;;
4889;SDS011;2459;42.268;23.112;2022-11-15T06:59:57;72.70;;;27.70;;
4889;SDS011;2459;42.268;23.112;2022-11-15T07:02:25;69.40;;;26.40;;
4889;SDS011;2459;42.268;23.112;2022-11-15T07:04:51;81.47;;;31.70;;
4889;SDS011;2459;42.268;23.112;2022-11-15T07:07:18;68.50;;;29.00;;
4889;SDS011;2459;42.268;23.112;2022-11-15T07:09:44;74.10;;;28.90;;
4889;SDS011;2459;42.268;23.112;2022-11-15T07:12:10;72.50;;;27.70;;
4889;SDS011;2459;42.268;23.112;2022-11-15T07:14:37;79.47;;;29.00;;
4889;SDS011;2459;42.268;23.112;2022-11-15T07:17:03;87.70;;;33.97;;
4889;SDS011;2459;42.268;23.112;2022-11-15T07:19:32;66.67;;;25.37;;
4889;SDS011;2459;42.268;23.112;2022-11-15T07:21:58;67.37;;;25.70;;
4889;SDS011;2459;42.268;23.112;2022-11-15T07:24:25;72.00;;;23.70;;
4889;SDS011;2459;42.268;23.112;2022-11-15T07:26:51;66.93;;;26.03;;
4889;SDS011;2459;42.268;23.112;2022-11-15T07:29:18;53.53;;;23.97;;
4889;SDS011;2459;42.268;23.112;2022-11-15T07:31:44;72.23;;;26.00;;
4889;SDS011;2459;42.268;23.112;2022-11-15T07:34:11;66.87;;;25.83;;
4889;SDS011;2459;42.268;23.112;2022-11-15T07:36:38;66.73;;;25.70;;
4889;SDS011;2459;42.268;23.112;2022-11-15T07:39:05;67.40;;;25.30;;
4889;SDS011;2459;42.268;23.112;2022-11-15T07:41:31;67.67;;;26.93;;
4889;SDS011;2459;42.268;23.112;2022-11-15T07:43:58;60.17;;;21.87;;
4889;SDS011;2459;42.268;23.112;2022-11-15T07:46:25;51.97;;;23.20;;
4889;SDS011;2459;42.268;23.112;2022-11-15T07:48:52;70.47;;;26.87;;
4889;SDS011;2459;42.268;23.112;2022-11-15T07:51:19;63.50;;;26.50;;
4889;SDS011;2459;42.268;23.112;2022-11-15T07:53:47;50.70;;;21.50;;
4889;SDS011;2459;42.268;23.112;2022-11-15T07:56:14;59.63;;;23.90;;
4889;SDS011;2459;42.268;23.112;2022-11-15T07:58:40;69.50;;;23.27;;
4889;SDS011;2459;42.268;23.112;2022-11-15T08:01:07;54.93;;;24.53;;
4889;SDS011;2459;42.268;23.112;2022-11-15T08:03:34;66.13;;;24.93;;
4889;SDS011;2459;42.268;23.112;2022-11-15T08:06:01;60.20;;;23.57;;
4889;SDS011;2459;42.268;23.112;2022-11-15T08:08:28;67.63;;;25.10;;
4889;SDS011;2459;42.268;23.112;2022-11-15T08:10:56;51.67;;;20.83;;
4889;SDS011;2459;42.268;23.112;2022-11-15T08:13:23;52.93;;;21.07;;
4889;SDS011;2459;42.268;23.112;2022-11-15T08:15:49;50.77;;;21.93;;
4889;SDS011;2459;42.268;23.112;2022-11-15T08:18:16;53.27;;;20.27;;
4889;SDS011;2459;42.268;23.112;2022-11-15T08:20:42;38.10;;;16.10;;
4889;SDS011;2459;42.268;23.112;2022-11-15T08:23:10;41.70;;;15.10;;
4889;SDS011;2459;42.268;23.112;2022-11-15T08:25:36;27.90;;;13.33;;
4889;SDS011;2459;42.268;23.112;2022-11-15T08:28:05;108.03;;;37.03;;
4889;SDS011;2459;42.268;23.112;2022-11-15T08:30:34;73.13;;;26.23;;
4889;SDS011;2459;42.268;23.112;2022-11-15T08:33:01;44.77;;;17.77;;
4889;SDS011;2459;42.268;23.112;2022-11-15T08:35:27;23.77;;;12.27;;
4889;SDS011;2459;42.268;23.112;2022-11-15T08:37:54;22.20;;;10.80;;
4889;SDS011;2459;42.268;23.112;2022-11-15T08:40:20;26.67;;;15.10;;
4889;SDS011;2459;42.268;23.112;2022-11-15T08:42:47;23.30;;;11.93;;
4889;SDS011;2459;42.268;23.112;2022-11-15T08:45:15;22.67;;;10.97;;
4889;SDS011;2459;42.268;23.112;2022-11-15T08:47:42;25.37;;;11.77;;
4889;SDS011;2459;42.268;23.112;2022-11-15T08:50:08;26.83;;;12.70;;
4889;SDS011;2459;42.268;23.112;2022-11-15T08:52:35;29.57;;;11.83;;
4889;SDS011;2459;42.268;23.112;2022-11-15T08:55:01;29.80;;;14.07;;
4889;SDS011;2459;42.268;23.112;2022-11-15T08:57:28;41.23;;;16.20;;
4889;SDS011;2459;42.268;23.112;2022-11-15T08:59:54;31.77;;;14.07;;
4889;SDS011;2459;42.268;23.112;2022-11-15T09:02:22;38.20;;;16.00;;
4889;SDS011;2459;42.268;23.112;2022-11-15T09:04:48;31.70;;;15.60;;
4889;SDS011;2459;42.268;23.112;2022-11-15T09:07:15;27.73;;;14.37;;
4889;SDS011;2459;42.268;23.112;2022-11-15T09:09:41;32.80;;;15.87;;
4889;SDS011;2459;42.268;23.112;2022-11-15T09:12:08;44.47;;;19.67;;
4889;SDS011;2459;42.268;23.112;2022-11-15T09:14:35;26.73;;;14.50;;
4889;SDS011;2459;42.268;23.112;2022-11-15T09:17:01;28.17;;;13.83;;
4889;SDS011;2459;42.268;23.112;2022-11-15T09:19:29;27.97;;;14.30;;
4889;SDS011;2459;42.268;23.112;2022-11-15T09:21:56;27.43;;;15.07;;
4889;SDS011;2459;42.268;23.112;2022-11-15T09:24:22;42.93;;;18.37;;
4889;SDS011;2459;42.268;23.112;2022-11-15T09:26:49;35.63;;;16.00;;
4889;SDS011;2459;42.268;23.112;2022-11-15T09:29:15;28.10;;;16.00;;
4889;SDS011;2459;42.268;23.112;2022-11-15T09:31:42;31.90;;;15.00;;
4889;SDS011;2459;42.268;23.112;2022-11-15T09:34:08;35.43;;;15.57;;
4889;SDS011;2459;42.268;23.112;2022-11-15T09:36:37;41.00;;;17.63;;
4889;SDS011;2459;42.268;23.112;2022-11-15T09:39:04;45.30;;;16.90;;
4889;SDS011;2459;42.268;23.112;2022-11-15T09:41:45;32.93;;;15.10;;
4889;SDS011;2459;42.268;23.112;2022-11-15T09:44:17;33.53;;;15.43;;
4889;SDS011;2459;42.268;23.112;2022-11-15T09:46:50;43.13;;;16.97;;
4889;SDS011;2459;42.268;23.112;2022-11-15T09:49:21;28.80;;;13.60;;
4889;SDS011;2459;42.268;23.112;2022-11-15T09:51:50;31.27;;;15.10;;
4889;SDS011;2459;42.268;23.112;2022-11-15T09:54:21;49.33;;;13.80;;
4889;SDS011;2459;42.268;23.112;2022-11-15T09:56:48;36.27;;;13.07;;
4889;SDS011;2459;42.268;23.112;2022-11-15T09:59:25;31.83;;;14.13;;
4889;SDS011;2459;42.268;23.112;2022-11-15T10:01:55;40.43;;;15.47;;
4889;SDS011;2459;42.268;23.112;2022-11-15T10:04:22;44.67;;;15.50;;
4889;SDS011;2459;42.268;23.112;2022-11-15T10:06:51;34.63;;;14.13;;
4889;SDS011;2459;42.268;23.112;2022-11-15T10:09:21;32.93;;;15.53;;
4889;SDS011;2459;42.268;23.112;2022-11-15T10:11:49;28.47;;;14.80;;
4889;SDS011;2459;42.268;23.112;2022-11-15T10:14:17;32.67;;;16.70;;
4889;SDS011;2459;42.268;23.112;2022-11-15T10:19:29;31.83;;;14.60;;
4889;SDS011;2459;42.268;23.112;2022-11-15T10:22:03;29.57;;;14.03;;
4889;SDS011;2459;42.268;23.112;2022-11-15T10:24:37;47.37;;;15.63;;
4889;SDS011;2459;42.268;23.112;2022-11-15T10:27:07;30.37;;;13.27;;
4889;SDS011;2459;42.268;23.112;2022-11-15T10:29:35;35.87;;;15.30;;
4889;SDS011;2459;42.268;23.112;2022-11-15T10:32:01;39.60;;;15.43;;
4889;SDS011;2459;42.268;23.112;2022-11-15T10:34:28;30.60;;;14.43;;
4889;SDS011;2459;42.268;23.112;2022-11-15T10:36:55;44.53;;;14.10;;
4889;SDS011;2459;42.268;23.112;2022-11-15T10:39:23;42.93;;;19.00;;
4889;SDS011;2459;42.268;23.112;2022-11-15T10:41:50;37.77;;;18.90;;
4889;SDS011;2459;42.268;23.112;2022-11-15T10:44:18;26.90;;;14.23;;
4889;SDS011;2459;42.268;23.112;2022-11-15T10:46:45;23.97;;;12.97;;
4889;SDS011;2459;42.268;23.112;2022-11-15T10:49:14;27.23;;;13.70;;
4889;SDS011;2459;42.268;23.112;2022-11-15T10:51:42;28.90;;;14.77;;
4889;SDS011;2459;42.268;23.112;2022-11-15T10:54:09;26.97;;;11.87;;
4889;SDS011;2459;42.268;23.112;2022-11-15T10:56:38;25.70;;;12.60;;
4889;SDS011;2459;42.268;23.112;2022-11-15T10:59:05;18.07;;;10.57;;
4889;SDS011;2459;42.268;23.112;2022-11-15T11:01:31;25.08;;;12.20;;
4889;SDS011;2459;42.268;23.112;2022-11-15T11:04:11;33.50;;;13.82;;
4889;SDS011;2459;42.268;23.112;2022-11-15T11:06:46;28.80;;;16.20;;
4889;SDS011;2459;42.268;23.112;2022-11-15T11:09:20;32.38;;;14.98;;
4889;SDS011;2459;42.268;23.112;2022-11-15T11:11:49;27.98;;;14.35;;
4889;SDS011;2459;42.268;23.112;2022-11-15T11:14:19;29.73;;;13.85;;
4889;SDS011;2459;42.268;23.112;2022-11-15T11:16:47;36.33;;;13.88;;
4889;SDS011;2459;42.268;23.112;2022-11-15T11:19:18;32.05;;;14.50;;
4889;SDS011;2459;42.268;23.112;2022-11-15T11:21:46;29.27;;;14.68;;
4889;SDS011;2459;42.268;23.112;2022-11-15T11:24:16;30.33;;;16.40;;
4889;SDS011;2459;42.268;23.112;2022-11-15T11:26:46;29.77;;;13.40;;
4889;SDS011;2459;42.268;23.112;2022-11-15T11:29:20;24.75;;;14.57;;
4889;SDS011;2459;42.268;23.112;2022-11-15T11:31:52;30.92;;;16.02;;
4889;SDS011;2459;42.268;23.112;2022-11-15T11:34:27;25.38;;;13.73;;
4889;SDS011;2459;42.268;23.112;2022-11-15T11:36:59;28.93;;;14.83;;
4889;SDS011;2459;42.268;23.112;2022-11-15T11:39:30;29.35;;;15.68;;
4889;SDS011;2459;42.268;23.112;2022-11-15T11:42:00;26.73;;;14.68;;
4889;SDS011;2459;42.268;23.112;2022-11-15T11:44:43;35.20;;;17.05;;
4889;SDS011;2459;42.268;23.112;2022-11-15T11:47:14;35.67;;;15.82;;
4889;SDS011;2459;42.268;23.112;2022-11-15T11:49:45;26.90;;;13.63;;
4889;SDS011;2459;42.268;23.112;2022-11-15T11:52:14;22.02;;;14.15;;
4889;SDS011;2459;42.268;23.112;2022-11-15T11:54:45;34.72;;;16.20;;
4889;SDS011;2459;42.268;23.112;2022-11-15T11:57:16;29.70;;;15.77;;
4889;SDS011;2459;42.268;23.112;2022-11-15T11:59:48;27.83;;;15.07;;
4889;SDS011;2459;42.268;23.112;2022-11-15T12:02:27;32.13;;;15.00;;
4889;SDS011;2459;42.268;23.112;2022-11-15T12:04:57;24.88;;;15.07;;
4889;SDS011;2459;42.268;23.112;2022-11-15T12:07:27;25.55;;;13.77;;
4889;SDS011;2459;42.268;23.112;2022-11-15T12:09:57;22.80;;;14.02;;
4889;SDS011;2459;42.268;23.112;2022-11-15T12:12:27;29.90;;;15.60;;
4889;SDS011;2459;42.268;23.112;2022-11-15T12:14:59;23.20;;;13.07;;
4889;SDS011;2459;42.268;23.112;2022-11-15T12:17:28;35.05;;;14.32;;
4889;SDS011;2459;42.268;23.112;2022-11-15T12:19:57;25.02;;;12.65;;
4889;SDS011;2459;42.268;23.112;2022-11-15T12:22:24;29.15;;;12.63;;
4889;SDS011;2459;42.268;23.112;2022-11-15T12:24:53;20.83;;;11.57;;
4889;SDS011;2459;42.268;23.112;2022-11-15T12:27:22;23.63;;;12.55;;
4889;SDS011;2459;42.268;23.112;2022-11-15T12:29:52;25.30;;;12.82;;
4889;SDS011;2459;42.268;23.112;2022-11-15T12:32:25;26.63;;;13.38;;
4889;SDS011;2459;42.268;23.112;2022-11-15T12:34:53;25.35;;;12.80;;
4889;SDS011;2459;42.268;23.112;2022-11-15T12:40:23;22.50;;;12.93;;
4889;SDS011;2459;42.268;23.112;2022-11-15T12:43:00;23.85;;;13.63;;
4889;SDS011;2459;42.268;23.112;2022-11-15T12:45:27;26.77;;;15.27;;
4889;SDS011;2459;42.268;23.112;2022-11-15T12:47:57;26.63;;;14.90;;
4889;SDS011;2459;42.268;23.112;2022-11-15T12:50:53;21.25;;;13.38;;
4889;SDS011;2459;42.268;23.112;2022-11-15T12:53:25;28.70;;;13.38;;
4889;SDS011;2459;42.268;23.112;2022-11-15T12:58:40;23.25;;;13.82;;
4889;SDS011;2459;42.268;23.112;2022-11-15T13:01:07;24.88;;;13.98;;
4889;SDS011;2459;42.268;23.112;2022-11-15T13:03:34;24.08;;;13.82;;
4889;SDS011;2459;42.268;23.112;2022-11-15T13:06:05;25.27;;;14.25;;
4889;SDS011;2459;42.268;23.112;2022-11-15T13:08:39;28.43;;;15.00;;
4889;SDS011;2459;42.268;23.112;2022-11-15T13:13:51;22.43;;;14.07;;
4889;SDS011;2459;42.268;23.112;2022-11-15T13:16:18;28.10;;;15.00;;
4889;SDS011;2459;42.268;23.112;2022-11-15T13:18:53;27.60;;;13.67;;
4889;SDS011;2459;42.268;23.112;2022-11-15T13:21:21;26.50;;;13.30;;
4889;SDS011;2459;42.268;23.112;2022-11-15T13:24:09;28.00;;;15.60;;
4889;SDS011;2459;42.268;23.112;2022-11-15T13:26:37;28.07;;;13.43;;
4889;SDS011;2459;42.268;23.112;2022-11-15T13:29:04;23.03;;;13.03;;
4889;SDS011;2459;42.268;23.112;2022-11-15T13:31:41;29.27;;;12.77;;
4889;SDS011;2459;42.268;23.112;2022-11-15T13:34:19;27.70;;;15.27;;
4889;SDS011;2459;42.268;23.112;2022-11-15T13:36:48;45.50;;;15.57;;
4889;SDS011;2459;42.268;23.112;2022-11-15T13:39:23;39.47;;;15.97;;
4889;SDS011;2459;42.268;23.112;2022-11-15T13:41:51;22.37;;;14.37;;
4889;SDS011;2459;42.268;23.112;2022-11-15T13:44:19;29.40;;;14.97;;
4889;SDS011;2459;42.268;23.112;2022-11-15T13:46:45;28.23;;;15.37;;
4889;SDS011;2459;42.268;23.112;2022-11-15T13:49:12;29.73;;;15.30;;
4889;SDS011;2459;42.268;23.112;2022-11-15T13:51:43;31.67;;;14.50;;
4889;SDS011;2459;42.268;23.112;2022-11-15T13:54:13;26.63;;;15.67;;
4889;SDS011;2459;42.268;23.112;2022-11-15T13:56:41;21.83;;;13.33;;
4889;SDS011;2459;42.268;23.112;2022-11-15T13:59:09;30.17;;;13.77;;
4889;SDS011;2459;42.268;23.112;2022-11-15T14:01:36;30.27;;;16.23;;
4889;SDS011;2459;42.268;23.112;2022-11-15T14:04:02;27.43;;;15.17;;
4889;SDS011;2459;42.268;23.112;2022-11-15T14:06:29;27.40;;;14.60;;
4889;SDS011;2459;42.268;23.112;2022-11-15T14:09:03;17.63;;;12.47;;
4889;SDS011;2459;42.268;23.112;2022-11-15T14:11:29;21.23;;;12.10;;
4889;SDS011;2459;42.268;23.112;2022-11-15T14:14:01;26.00;;;13.40;;
4889;SDS011;2459;42.268;23.112;2022-11-15T14:16:32;21.70;;;13.50;;
4889;SDS011;2459;42.268;23.112;2022-11-15T14:18:59;33.37;;;14.27;;
4889;SDS011;2459;42.268;23.112;2022-11-15T14:21:25;22.70;;;12.70;;
4889;SDS011;2459;42.268;23.112;2022-11-15T14:23:52;22.20;;;13.20;;
4889;SDS011;2459;42.268;23.112;2022-11-15T14:26:27;34.87;;;19.50;;
4889;SDS011;2459;42.268;23.112;2022-11-15T14:28:54;62.27;;;18.00;;
4889;SDS011;2459;42.268;23.112;2022-11-15T14:31:20;31.50;;;17.13;;
4889;SDS011;2459;42.268;23.112;2022-11-15T14:33:47;33.90;;;15.23;;
4889;SDS011;2459;42.268;23.112;2022-11-15T14:36:14;32.50;;;17.43;;
4889;SDS011;2459;42.268;23.112;2022-11-15T14:38:41;41.93;;;16.90;;
4889;SDS011;2459;42.268;23.112;2022-11-15T14:41:10;34.80;;;18.00;;
4889;SDS011;2459;42.268;23.112;2022-11-15T14:43:44;40.53;;;17.83;;
4889;SDS011;2459;42.268;23.112;2022-11-15T14:49:07;39.03;;;17.40;;
4889;SDS011;2459;42.268;23.112;2022-11-15T14:51:34;30.17;;;15.57;;
4889;SDS011;2459;42.268;23.112;2022-11-15T14:54:00;46.03;;;17.60;;
4889;SDS011;2459;42.268;23.112;2022-11-15T14:56:27;38.90;;;18.63;;
4889;SDS011;2459;42.268;23.112;2022-11-15T14:58:55;44.27;;;19.83;;